Time;durP1;ratioP1;P1;durP2;ratioP2;P2;SDS_P1;SDS_P2;PMS_P1;PMS_P2;Temp;Humidity;BMP_temperature;BMP_pressure;BME280_temperature;BME280_humidity;BME280_pressure;Samples;Min_cycle;Max_cycle;Signal;HPM_P1;HPM_P2
2022/06/05 00:02:01;;;;;;;6.28;4.88;;;;;;;18.74;53.69;101622.06;5050682;28;20033;-76
2022/06/05 00:04:47;;;;;;;6.47;4.70;;;;;;;18.72;53.22;101616.00;5051266;28;20017;-76
2022/06/05 00:07:29;;;;;;;6.32;4.35;;;;;;;18.69;53.30;101613.53;5048058;28;20464;-75
2022/06/05 00:10:04;;;;;;;7.35;4.63;;;;;;;18.66;53.79;101612.75;5052437;28;20083;-76
2022/06/05 00:12:38;;;;;;;7.53;4.65;;;;;;;18.65;53.64;101613.66;5049368;28;20380;-75
2022/06/05 00:15:04;;;;;;;6.63;4.38;;;;;;;18.63;53.77;101609.41;5046521;28;20567;-75
2022/06/05 00:17:29;;;;;;;6.30;4.70;;;;;;;18.59;54.32;101602.56;5048671;28;20108;-75
2022/06/05 00:19:55;;;;;;;6.57;4.97;;;;;;;18.58;54.09;101592.94;5051953;28;20043;-76
2022/06/05 00:22:21;;;;;;;6.75;4.90;;;;;;;18.54;54.71;101588.75;5052393;28;20091;-76
2022/06/05 00:24:46;;;;;;;7.35;4.95;;;;;;;18.52;54.45;101580.91;5051582;28;20045;-76
2022/06/05 00:27:24;;;;;;;6.10;4.90;;;;;;;18.46;54.33;101587.34;5051359;28;20029;-75
2022/06/05 00:30:11;;;;;;;6.30;4.60;;;;;;;18.45;54.61;101592.66;5052804;28;20040;-75
2022/06/05 00:32:39;;;;;;;6.28;4.88;;;;;;;18.43;54.51;101587.47;5047924;28;20047;-76
2022/06/05 00:35:10;;;;;;;6.38;5.03;;;;;;;18.39;54.43;101590.34;5049443;28;20032;-76
2022/06/05 00:37:56;;;;;;;6.43;4.90;;;;;;;18.39;53.72;101590.34;5050803;28;20033;-75
2022/06/05 00:40:56;;;;;;;6.20;4.50;;;;;;;18.35;53.61;101585.22;5052188;28;20116;-76
2022/06/05 00:43:24;;;;;;;7.60;4.70;;;;;;;18.30;54.92;101579.28;5049819;28;20032;-76
2022/06/05 00:45:51;;;;;;;6.47;4.38;;;;;;;18.27;55.09;101570.69;5047384;28;20419;-75
2022/06/05 00:48:17;;;;;;;7.18;4.65;;;;;;;18.23;54.69;101574.38;5047539;28;20029;-76
2022/06/05 00:50:44;;;;;;;6.03;5.00;;;;;;;18.19;54.65;101568.41;5049093;28;20107;-76
2022/06/05 00:53:11;;;;;;;6.70;4.53;;;;;;;18.16;55.20;101568.53;5047938;28;20021;-76
2022/06/05 00:55:43;;;;;;;7.68;5.05;;;;;;;18.11;55.17;101566.13;5049732;28;20039;-76
2022/06/05 00:58:09;;;;;;;7.65;4.82;;;;;;;18.11;55.38;101560.00;5049565;28;20032;-76
2022/06/05 01:00:38;;;;;;;5.65;4.60;;;;;;;18.10;55.32;101550.41;5051684;28;20025;-76
2022/06/05 01:03:07;;;;;;;6.53;4.47;;;;;;;18.08;55.63;101558.38;5050271;28;20025;-75
2022/06/05 01:05:33;;;;;;;5.88;4.50;;;;;;;18.04;55.29;101564.69;5049183;28;20036;-75
2022/06/05 01:07:58;;;;;;;9.48;4.60;;;;;;;18.03;55.45;101571.75;5046873;28;20037;-75
2022/06/05 01:10:34;;;;;;;6.63;4.50;;;;;;;18.00;54.99;101569.25;5050613;28;20073;-75
2022/06/05 01:13:13;;;;;;;5.60;4.72;;;;;;;17.99;55.52;101569.34;5048041;28;20107;-75
2022/06/05 01:16:14;;;;;;;6.93;4.50;;;;;;;17.98;54.49;101563.19;5053043;28;20098;-75
2022/06/05 01:18:51;;;;;;;6.63;4.47;;;;;;;17.95;55.60;101559.81;5045473;28;20032;-75
2022/06/05 01:21:35;;;;;;;7.70;4.90;;;;;;;17.91;54.96;101553.84;5057621;28;20020;-75
2022/06/05 01:24:22;;;;;;;6.18;4.53;;;;;;;17.88;55.32;101557.47;5048261;28;20029;-75
2022/06/05 01:26:53;;;;;;;8.13;4.90;;;;;;;17.86;55.20;101550.56;5052848;28;20107;-75
2022/06/05 01:29:20;;;;;;;8.63;4.70;;;;;;;17.84;56.03;101541.88;5050109;28;20052;-75
2022/06/05 01:31:55;;;;;;;8.20;5.28;;;;;;;17.79;55.59;101528.06;5047366;28;20060;-75
2022/06/05 01:34:35;;;;;;;8.35;4.97;;;;;;;17.78;55.33;101531.63;5048563;28;20021;-75
2022/06/05 01:37:08;;;;;;;6.22;4.78;;;;;;;17.75;56.01;101528.22;5048172;28;20063;-75
2022/06/05 01:39:47;;;;;;;7.22;4.55;;;;;;;17.75;55.46;101522.09;5049912;28;20039;-75
2022/06/05 01:42:22;;;;;;;6.85;4.63;;;;;;;17.74;55.48;101526.53;5047426;28;20021;-75
2022/06/05 01:44:51;;;;;;;5.45;4.63;;;;;;;17.73;56.17;101529.19;5048185;28;20036;-76
2022/06/05 01:47:25;;;;;;;7.05;5.00;;;;;;;17.71;55.56;101531.91;5050104;28;20234;-75
2022/06/05 01:49:59;;;;;;;6.50;4.65;;;;;;;17.70;55.44;101530.22;5048627;28;20051;-76
2022/06/05 01:52:30;;;;;;;6.68;4.90;;;;;;;17.69;55.62;101531.13;5053188;28;20161;-76
2022/06/05 01:55:05;;;;;;;8.20;4.82;;;;;;;17.69;55.85;101532.88;5051451;28;20029;-75
2022/06/05 01:57:31;;;;;;;7.28;4.85;;;;;;;17.68;55.87;101553.09;5050447;28;20086;-74
2022/06/05 02:00:01;;;;;;;6.28;4.75;;;;;;;17.67;56.77;101566.34;5050324;28;20029;-75
2022/06/05 02:02:33;;;;;;;5.77;4.20;;;;;;;17.69;56.15;101553.94;5047494;28;20060;-75
2022/06/05 02:05:06;;;;;;;7.03;5.00;;;;;;;17.68;55.59;101537.31;5047866;28;20378;-75
2022/06/05 02:07:48;;;;;;;7.13;4.75;;;;;;;17.63;55.75;101549.81;5049092;28;20082;-75
2022/06/05 02:10:25;;;;;;;7.85;4.70;;;;;;;17.63;55.81;101549.81;5048965;28;20025;-75
2022/06/05 02:12:53;;;;;;;6.93;5.07;;;;;;;17.63;56.71;101549.81;5049038;28;20099;-75
2022/06/05 02:15:18;;;;;;;8.07;5.30;;;;;;;17.64;56.48;101527.00;5046401;28;20540;-75
2022/06/05 02:17:44;;;;;;;6.53;4.68;;;;;;;17.63;56.75;101505.06;5050370;28;20104;-76
2022/06/05 02:20:10;;;;;;;6.75;4.57;;;;;;;17.60;56.99;101492.06;5052954;28;20475;-75
2022/06/05 02:22:45;;;;;;;6.05;4.70;;;;;;;17.59;56.07;101478.06;5049903;28;20112;-75
2022/06/05 02:25:12;;;;;;;6.57;4.55;;;;;;;17.54;56.16;101480.03;5051099;28;20535;-75
2022/06/05 02:27:37;;;;;;;8.75;4.88;;;;;;;17.48;56.26;101464.53;5050210;28;20025;-75
2022/06/05 02:30:04;;;;;;;7.22;5.30;;;;;;;17.48;56.73;101466.31;5048560;28;20029;-75
2022/06/05 02:32:40;;;;;;;6.22;4.90;;;;;;;17.48;56.21;101455.78;5045399;28;20071;-75
2022/06/05 02:35:21;;;;;;;7.00;4.93;;;;;;;17.43;56.40;101454.22;5047859;28;20025;-76
2022/06/05 02:38:05;;;;;;;7.63;4.97;;;;;;;17.42;55.86;101447.25;5051117;28;20029;-76
2022/06/05 02:40:36;;;;;;;9.48;5.32;;;;;;;17.36;56.91;101447.53;5045719;28;20025;-76
2022/06/05 02:43:29;;;;;;;7.60;4.93;;;;;;;17.38;56.02;101440.44;5047586;28;20098;-76
2022/06/05 02:46:04;;;;;;;7.20;4.93;;;;;;;17.35;57.00;101439.69;5050211;28;20111;-75
2022/06/05 02:48:35;;;;;;;8.55;5.22;;;;;;;17.32;56.86;101442.47;5048980;28;20028;-75
2022/06/05 02:51:13;;;;;;;7.53;4.90;;;;;;;17.31;56.91;101446.03;5049208;28;20028;-75
2022/06/05 02:53:52;;;;;;;5.97;5.20;;;;;;;17.30;56.45;101439.91;5047342;28;20492;-75
2022/06/05 02:56:18;;;;;;;7.22;5.00;;;;;;;17.27;56.99;101432.16;5048254;28;20040;-75
2022/06/05 02:58:47;;;;;;;7.00;4.85;;;;;;;17.26;56.99;101428.69;5047044;28;20025;-75
2022/06/05 03:03:57;;;;;;;7.30;5.03;;;;;;;17.20;56.93;101423.69;5051794;28;20036;-75
2022/06/05 03:06:22;;;;;;;8.00;5.30;;;;;;;17.19;57.07;101423.75;5048525;28;20036;-75
2022/06/05 03:08:48;;;;;;;7.50;5.40;;;;;;;17.19;57.08;101418.50;5053276;28;20028;-75
2022/06/05 03:11:13;;;;;;;7.13;5.28;;;;;;;17.17;56.57;101410.66;5049392;28;20035;-76
2022/06/05 03:13:38;;;;;;;7.28;5.30;;;;;;;17.16;57.08;101413.38;5050008;28;20024;-75
2022/06/05 03:16:04;;;;;;;7.80;4.97;;;;;;;17.12;56.94;101418.75;5050367;28;20100;-75
2022/06/05 03:18:29;;;;;;;8.00;4.88;;;;;;;17.12;56.83;101412.66;5050677;28;20029;-74
2022/06/05 03:20:58;;;;;;;7.13;5.30;;;;;;;17.11;56.71;101422.31;5049431;28;20526;-75
2022/06/05 03:23:25;;;;;;;6.75;4.97;;;;;;;17.09;57.42;101402.28;5050918;28;20036;-76
2022/06/05 03:25:51;;;;;;;7.32;4.78;;;;;;;17.08;57.26;101403.19;5051983;28;20124;-76
2022/06/05 03:28:16;;;;;;;7.13;4.85;;;;;;;17.07;57.18;101397.09;5051952;28;20111;-75
2022/06/05 03:30:42;;;;;;;6.97;4.95;;;;;;;17.07;56.75;101391.84;5047537;28;20389;-75
2022/06/05 03:33:08;;;;;;;7.85;5.20;;;;;;;17.06;57.46;101392.75;5050590;28;20029;-75
2022/06/05 03:35:38;;;;;;;6.13;5.10;;;;;;;17.02;57.07;101385.94;5048873;28;20033;-75
2022/06/05 03:38:04;;;;;;;5.85;4.72;;;;;;;17.03;57.71;101386.75;5049649;28;20017;-76
2022/06/05 03:40:30;;;;;;;7.18;5.13;;;;;;;16.98;57.15;101386.97;5048362;28;20028;-75
2022/06/05 03:42:56;;;;;;;6.80;5.00;;;;;;;16.96;56.88;101381.81;5053377;28;20147;-75
2022/06/05 03:45:21;;;;;;;7.65;5.38;;;;;;;16.95;57.19;101382.72;5048206;28;20111;-75
2022/06/05 03:47:46;;;;;;;7.18;4.90;;;;;;;16.94;57.04;101383.59;5050531;28;20471;-75
2022/06/05 03:50:14;;;;;;;8.05;5.00;;;;;;;16.92;57.22;101390.69;5048230;28;20024;-75
2022/06/05 03:52:41;;;;;;;7.00;5.10;;;;;;;16.91;57.24;101382.91;5049409;28;20028;-75
2022/06/05 03:55:08;;;;;;;6.38;5.20;;;;;;;16.91;57.30;101388.16;5048962;28;20064;-75
2022/06/05 03:57:33;;;;;;;7.60;5.22;;;;;;;16.90;57.43;101394.31;5048623;28;20059;-75
2022/06/05 03:59:58;;;;;;;7.60;5.10;;;;;;;16.88;57.71;101389.13;5050443;28;20053;-75
2022/06/05 04:02:25;;;;;;;8.05;5.60;;;;;;;16.88;57.68;101396.16;5049818;28;20020;-75
2022/06/05 04:04:51;;;;;;;7.85;4.95;;;;;;;16.85;57.69;101394.50;5050769;28;20033;-75
2022/06/05 04:07:17;;;;;;;6.63;5.10;;;;;;;16.84;57.45;101398.91;5050712;28;20040;-75
2022/06/05 04:09:42;;;;;;;7.57;5.03;;;;;;;16.84;57.73;101393.66;5056778;28;20021;-76
2022/06/05 04:12:07;;;;;;;7.57;5.25;;;;;;;16.83;57.71;101394.59;5049248;28;20043;-75
2022/06/05 04:14:33;;;;;;;7.30;5.22;;;;;;;16.81;57.98;101391.16;5050656;28;20025;-75
2022/06/05 04:16:58;;;;;;;7.13;4.93;;;;;;;16.79;57.85;101384.28;5048759;28;20056;-75
2022/06/05 04:19:23;;;;;;;7.65;5.80;;;;;;;16.77;57.92;101386.13;5051217;28;20063;-75
2022/06/05 04:21:49;;;;;;;7.70;5.22;;;;;;;16.77;58.13;101380.84;5048063;28;20032;-75
2022/06/05 04:24:15;;;;;;;9.45;5.55;;;;;;;16.77;57.87;101386.94;5046469;28;20430;-75
2022/06/05 04:26:41;;;;;;;6.40;5.45;;;;;;;16.74;58.17;101392.34;5050924;28;20025;-76
2022/06/05 04:29:07;;;;;;;7.63;5.38;;;;;;;16.72;58.16;101383.69;5050708;28;20039;-76
2022/06/05 04:31:35;;;;;;;6.65;4.85;;;;;;;16.72;58.60;101378.44;5048140;28;20041;-75
2022/06/05 04:34:04;;;;;;;6.80;5.30;;;;;;;16.72;58.25;101382.81;5052613;28;20067;-76
2022/06/05 04:36:30;;;;;;;7.63;5.20;;;;;;;16.71;58.94;101368.84;5054769;28;20024;-75
2022/06/05 04:38:56;;;;;;;7.50;5.50;;;;;;;16.70;58.65;101375.03;5052929;28;20432;-75
2022/06/05 04:41:24;;;;;;;8.35;5.68;;;;;;;16.71;58.88;101379.34;5047934;28;20558;-75
2022/06/05 04:43:50;;;;;;;8.70;5.40;;;;;;;16.72;58.86;101378.44;5049752;28;20029;-75
2022/06/05 04:46:17;;;;;;;7.97;5.55;;;;;;;16.71;59.10;101376.72;5048816;28;20025;-75
2022/06/05 04:48:43;;;;;;;8.35;5.93;;;;;;;16.69;58.84;101373.31;5051980;28;20537;-75
2022/06/05 04:51:12;;;;;;;7.05;5.65;;;;;;;16.70;59.27;101380.28;5052685;28;20032;-76
2022/06/05 04:53:38;;;;;;;9.05;5.75;;;;;;;16.68;59.17;101371.59;5047683;28;20522;-75
2022/06/05 04:56:05;;;;;;;7.93;5.60;;;;;;;16.67;59.57;101369.88;5050054;28;20029;-75
2022/06/05 04:58:31;;;;;;;7.18;5.68;;;;;;;16.67;59.82;101370.72;5050797;28;20112;-75
2022/06/05 05:00:56;;;;;;;9.05;5.80;;;;;;;16.66;59.47;101373.44;5047971;28;20032;-75
2022/06/05 05:03:22;;;;;;;8.68;5.63;;;;;;;16.66;59.72;101368.19;5048361;28;20093;-75
2022/06/05 05:05:47;;;;;;;7.55;5.22;;;;;;;16.65;60.17;101372.56;5050944;28;20465;-75
2022/06/05 05:08:12;;;;;;;7.50;5.95;;;;;;;16.64;59.57;101364.75;5050639;28;20037;-75
2022/06/05 05:10:38;;;;;;;9.93;6.43;;;;;;;16.62;59.58;101363.97;5055091;28;20111;-75
2022/06/05 05:13:03;;;;;;;9.27;6.13;;;;;;;16.61;59.80;101364.88;5048482;28;20064;-75
2022/06/05 05:15:28;;;;;;;8.02;5.90;;;;;;;16.61;59.97;101367.50;5052185;28;20044;-75
2022/06/05 05:17:54;;;;;;;8.00;5.68;;;;;;;16.60;60.06;101365.81;5056906;28;20447;-75
2022/06/05 05:20:20;;;;;;;8.38;5.65;;;;;;;16.59;59.88;101387.75;5050530;28;20465;-75
2022/06/05 05:22:45;;;;;;;7.72;5.80;;;;;;;16.58;60.20;101388.66;5048349;28;20144;-75
2022/06/05 05:25:11;;;;;;;7.72;5.63;;;;;;;16.58;60.15;101392.16;5048494;28;20041;-75
2022/06/05 05:27:37;;;;;;;7.97;5.65;;;;;;;16.58;59.87;101392.16;5050706;28;20068;-75
2022/06/05 05:30:06;;;;;;;7.70;5.53;;;;;;;16.61;60.40;101391.16;5049573;28;20431;-75
2022/06/05 05:32:32;;;;;;;8.05;5.80;;;;;;;16.60;59.92;101385.06;5049730;28;20044;-75
2022/06/05 05:34:57;;;;;;;9.70;5.93;;;;;;;16.61;61.03;101391.16;5053337;28;20096;-75
2022/06/05 05:37:22;;;;;;;8.75;5.78;;;;;;;16.61;60.32;101380.66;5050378;28;20136;-75
2022/06/05 05:42:32;;;;;;;8.75;6.30;;;;;;;16.63;60.18;101378.81;5049250;28;20051;-75
2022/06/05 05:44:58;;;;;;;7.72;5.32;;;;;;;16.65;61.18;101380.44;5049076;28;20395;-75
2022/06/05 05:47:26;;;;;;;8.10;6.20;;;;;;;16.67;60.31;101381.25;5050661;28;20464;-76
2022/06/05 05:49:57;;;;;;;8.57;5.45;;;;;;;16.70;60.09;101385.53;5047710;28;20585;-75
2022/06/05 05:52:24;;;;;;;8.32;5.70;;;;;;;16.72;60.56;101388.94;5051270;28;20028;-76
2022/06/05 05:54:49;;;;;;;7.63;6.00;;;;;;;16.75;60.90;101383.53;5049115;28;20029;-75
2022/06/05 05:57:16;;;;;;;8.43;5.72;;;;;;;16.77;60.19;101381.69;5046234;28;20048;-75
2022/06/05 05:59:42;;;;;;;8.18;5.78;;;;;;;16.80;61.26;101380.72;5047939;28;20052;-75
2022/06/05 06:02:11;;;;;;;8.00;5.53;;;;;;;16.82;60.16;101373.66;5047106;28;20016;-75
2022/06/05 06:04:37;;;;;;;10.02;5.82;;;;;;;16.84;60.37;101364.75;5044022;28;20028;-76
2022/06/05 06:07:03;;;;;;;9.73;5.63;;;;;;;16.87;60.13;101360.28;5048994;28;20021;-76
2022/06/05 06:09:29;;;;;;;6.90;5.28;;;;;;;16.90;60.48;101358.38;5049359;28;20472;-76
2022/06/05 06:11:54;;;;;;;8.60;5.60;;;;;;;16.94;60.10;101348.56;5050371;28;20021;-75
2022/06/05 06:14:19;;;;;;;8.05;5.90;;;;;;;16.97;60.12;101345.84;5049591;28;20033;-76
2022/06/05 06:16:44;;;;;;;7.65;5.70;;;;;;;17.01;60.04;101342.16;5046324;28;20493;-76
2022/06/05 06:19:10;;;;;;;7.72;5.90;;;;;;;17.06;59.90;101337.56;5048814;28;20036;-75
2022/06/05 06:21:35;;;;;;;7.57;5.78;;;;;;;17.09;60.16;101329.50;5053091;28;20032;-76
2022/06/05 06:24:00;;;;;;;8.52;5.70;;;;;;;17.13;60.26;101317.94;5046698;28;20373;-75
2022/06/05 06:26:26;;;;;;;7.30;5.82;;;;;;;17.19;60.06;101321.22;5050432;28;20039;-76
2022/06/05 06:28:51;;;;;;;7.10;5.55;;;;;;;17.23;59.41;101328.06;5049870;28;20075;-75
2022/06/05 06:31:17;;;;;;;7.30;5.82;;;;;;;17.27;59.47;101329.59;5049774;28;20164;-75
2022/06/05 06:33:45;;;;;;;7.65;5.90;;;;;;;17.31;59.45;101320.66;5049824;28;20048;-75
2022/06/05 06:36:13;;;;;;;8.00;6.07;;;;;;;17.34;59.12;101325.75;5048454;28;20426;-75
2022/06/05 06:38:40;;;;;;;7.70;5.40;;;;;;;17.39;60.22;101315.91;5055560;28;20028;-75
2022/06/05 06:41:09;;;;;;;8.80;6.10;;;;;;;17.43;59.55;101317.44;5047096;28;20391;-75
2022/06/05 06:43:35;;;;;;;7.22;5.68;;;;;;;17.47;59.37;101306.78;5047446;28;20033;-74
2022/06/05 06:46:01;;;;;;;7.47;5.75;;;;;;;17.53;59.55;101306.50;5054427;28;20028;-74
2022/06/05 06:48:27;;;;;;;7.15;5.80;;;;;;;17.59;59.51;101298.31;5045960;28;20051;-75
2022/06/05 06:50:56;;;;;;;7.15;5.72;;;;;;;17.65;58.71;101295.38;5050083;28;20111;-75
2022/06/05 06:53:23;;;;;;;8.98;5.72;;;;;;;17.68;58.80;101287.34;5047314;28;20029;-75
2022/06/05 06:55:50;;;;;;;10.63;6.05;;;;;;;17.72;58.83;101290.66;5048178;28;20036;-74
2022/06/05 06:58:16;;;;;;;7.95;6.10;;;;;;;17.75;59.05;101280.84;5047208;28;20033;-75
2022/06/05 07:00:41;;;;;;;8.65;6.93;;;;;;;17.81;59.39;101281.47;5046639;28;20025;-75
2022/06/05 07:03:06;;;;;;;9.80;7.15;;;;;;;17.82;58.61;101270.88;5043711;28;20017;-75
2022/06/05 07:05:32;;;;;;;8.15;6.82;;;;;;;17.86;58.81;101275.03;5047515;28;20064;-75
2022/06/05 07:07:58;;;;;;;9.05;7.15;;;;;;;17.90;58.92;101281.03;5047825;28;20032;-74
2022/06/05 07:10:23;;;;;;;7.22;6.45;;;;;;;17.93;58.77;101283.50;5046626;28;20032;-75
2022/06/05 07:12:49;;;;;;;7.55;6.40;;;;;;;17.97;59.28;101269.25;5046977;28;20032;-75
2022/06/05 07:15:14;;;;;;;7.78;6.22;;;;;;;18.03;59.07;101257.56;5047934;28;20098;-75
2022/06/05 07:17:40;;;;;;;7.63;5.90;;;;;;;18.10;59.18;101247.63;5042104;28;20039;-75
2022/06/05 07:20:06;;;;;;;8.80;7.10;;;;;;;18.14;58.98;101241.22;5045063;28;20025;-75
2022/06/05 07:22:31;;;;;;;8.07;6.75;;;;;;;18.20;59.09;101247.03;5040861;28;20033;-75
2022/06/05 07:24:56;;;;;;;9.15;7.45;;;;;;;18.25;58.57;101241.56;5044832;28;20063;-75
2022/06/05 07:27:22;;;;;;;8.70;7.03;;;;;;;18.30;59.06;101244.78;5046207;28;20029;-75
2022/06/05 07:29:47;;;;;;;8.95;7.10;;;;;;;18.37;59.69;101244.47;5049802;28;20059;-75
2022/06/05 07:32:13;;;;;;;7.80;6.97;;;;;;;18.45;59.17;101242.28;5046403;28;20152;-76
2022/06/05 07:34:39;;;;;;;8.35;6.90;;;;;;;18.52;58.86;101240.19;5051084;28;20025;-75
2022/06/05 07:37:04;;;;;;;9.63;6.72;;;;;;;18.56;58.37;101241.69;5050629;28;20859;-75
2022/06/05 07:39:30;;;;;;;8.60;6.68;;;;;;;18.60;58.66;101236.22;5052556;28;20123;-75
2022/06/05 07:41:58;;;;;;;8.93;6.20;;;;;;;18.63;58.94;101230.75;5049407;28;20029;-75
2022/06/05 07:44:25;;;;;;;7.50;6.65;;;;;;;18.68;58.83;101227.91;5050569;28;20033;-75
2022/06/05 07:46:50;;;;;;;8.35;6.78;;;;;;;18.72;59.15;101225.94;5047004;28;20279;-75
2022/06/05 07:49:16;;;;;;;8.70;7.25;;;;;;;18.76;58.87;101227.47;5051731;28;20463;-75
2022/06/05 07:54:34;;;;;;;7.50;6.13;;;;;;;18.87;58.68;101211.09;5055959;28;20040;-75
2022/06/05 07:57:12;;;;;;;9.48;7.03;;;;;;;18.93;58.20;101208.09;5061456;28;20168;-75
2022/06/05 07:59:44;;;;;;;10.55;6.70;;;;;;;18.95;58.16;101212.41;5052290;28;20514;-75
2022/06/05 08:02:15;;;;;;;7.20;6.50;;;;;;;19.02;58.56;101206.75;5050693;28;20435;-75
2022/06/05 08:04:42;;;;;;;7.65;6.35;;;;;;;19.07;58.08;101202.09;5055677;28;20121;-75
2022/06/05 08:07:10;;;;;;;9.40;6.78;;;;;;;19.12;57.89;101197.41;5048045;28;20039;-75
2022/06/05 08:09:37;;;;;;;7.40;6.05;;;;;;;19.16;57.92;101198.91;5051953;28;20046;-75
2022/06/05 08:12:03;;;;;;;6.65;5.95;;;;;;;19.23;58.23;101197.66;5050641;28;20039;-75
2022/06/05 08:14:32;;;;;;;8.18;7.05;;;;;;;19.29;57.51;101191.16;5051835;28;20533;-75
2022/06/05 08:16:58;;;;;;;7.95;6.95;;;;;;;19.34;56.93;101182.97;5049365;28;20056;-75
2022/06/05 08:19:24;;;;;;;6.80;6.10;;;;;;;19.37;57.23;101183.69;5048836;28;20072;-75
2022/06/05 08:21:51;;;;;;;9.25;7.20;;;;;;;19.43;57.88;101182.47;5044988;28;20033;-75
2022/06/05 08:24:17;;;;;;;7.88;6.28;;;;;;;19.50;58.30;101178.53;5045788;28;20056;-75
2022/06/05 08:26:43;;;;;;;7.97;6.70;;;;;;;19.57;58.57;101181.66;5056375;28;20056;-74
2022/06/05 08:29:08;;;;;;;8.60;6.63;;;;;;;19.64;57.51;101190.91;5054282;28;20387;-75
2022/06/05 08:31:34;;;;;;;9.00;7.40;;;;;;;19.66;57.86;101183.75;5054816;28;20025;-75
2022/06/05 08:34:01;;;;;;;7.53;6.60;;;;;;;19.70;58.12;101185.28;5052924;28;20196;-72
2022/06/05 08:36:28;;;;;;;8.00;6.78;;;;;;;19.77;57.55;101187.56;5053391;28;20044;-74
2022/06/05 08:41:46;;;;;;;8.60;7.55;;;;;;;19.95;57.92;101185.66;5056113;28;20047;-75
2022/06/05 08:44:46;;;;;;;7.43;6.63;;;;;;;20.06;57.21;101180.56;5053034;28;20112;-75
2022/06/05 08:47:21;;;;;;;8.13;6.70;;;;;;;20.12;57.36;101180.19;5033103;28;20112;-76
2022/06/05 08:49:50;;;;;;;10.82;7.20;;;;;;;20.20;56.79;101186.78;5053061;28;20033;-76
2022/06/05 08:52:27;;;;;;;9.65;6.82;;;;;;;20.24;56.95;101180.38;5046211;28;20029;-76
2022/06/05 08:54:58;;;;;;;6.90;6.20;;;;;;;20.29;56.68;101180.97;5051311;28;20131;-75
2022/06/05 08:57:33;;;;;;;7.95;6.28;;;;;;;20.32;56.49;101181.63;5053894;28;20140;-75
2022/06/05 09:00:13;;;;;;;7.40;6.70;;;;;;;20.37;56.84;101173.41;5050180;28;20061;-75
2022/06/05 09:02:59;;;;;;;8.05;7.00;;;;;;;20.43;56.52;101182.72;5049779;28;20028;-76
2022/06/05 09:05:31;;;;;;;7.65;6.75;;;;;;;20.49;57.94;101184.16;5053085;28;20037;-77
2022/06/05 09:08:09;;;;;;;6.90;6.13;;;;;;;20.53;56.80;101190.94;5049075;28;20137;-76
2022/06/05 09:10:39;;;;;;;6.82;6.20;;;;;;;20.58;56.94;101189.69;5049629;28;20043;-76
2022/06/05 09:13:07;;;;;;;8.63;7.10;;;;;;;20.64;57.22;101191.13;5055942;28;20039;-76
2022/06/05 09:15:46;;;;;;;7.60;6.80;;;;;;;20.64;56.64;101183.22;5055780;28;20043;-77
2022/06/05 09:18:15;;;;;;;7.45;6.75;;;;;;;20.61;56.12;101181.59;5046563;28;20036;-76
2022/06/05 09:20:51;;;;;;;7.63;6.82;;;;;;;20.61;57.67;101180.75;5052845;28;20041;-75
2022/06/05 09:23:27;;;;;;;7.03;6.32;;;;;;;20.58;55.99;101179.13;5050539;28;20112;-76
2022/06/05 09:25:52;;;;;;;8.52;6.80;;;;;;;20.57;56.64;101179.22;5042582;28;20053;-75
2022/06/05 09:28:35;;;;;;;8.32;7.05;;;;;;;20.58;56.79;101183.59;5045722;28;20036;-76
2022/06/05 09:31:30;;;;;;;7.57;6.82;;;;;;;20.55;57.14;101173.19;5045415;28;20036;-76
2022/06/05 09:33:58;;;;;;;7.90;6.50;;;;;;;20.55;57.72;101181.13;5046516;28;20375;-76
2022/06/05 09:36:26;;;;;;;8.32;6.80;;;;;;;20.56;57.78;101174.91;5045496;28;20040;-76
2022/06/05 09:39:09;;;;;;;6.75;5.95;;;;;;;20.56;57.22;101174.91;5047757;28;20033;-76
2022/06/05 09:41:53;;;;;;;7.93;7.13;;;;;;;20.56;57.17;101169.59;5045299;28;20429;-76
2022/06/05 09:44:37;;;;;;;7.75;6.22;;;;;;;20.53;57.37;101167.16;5047667;28;20032;-76
2022/06/05 09:47:09;;;;;;;9.40;7.97;;;;;;;20.51;57.45;101166.41;5044552;28;20074;-76
2022/06/05 09:49:45;;;;;;;9.48;7.53;;;;;;;20.45;57.33;101150.00;5045584;28;20360;-76
2022/06/05 09:52:19;;;;;;;9.68;8.20;;;;;;;20.44;57.63;101155.34;5044692;28;20070;-76
2022/06/05 09:54:48;;;;;;;10.88;7.80;;;;;;;20.42;58.99;101150.19;5049057;28;20082;-76
2022/06/05 10:00:31;;;;;;;9.02;7.60;;;;;;;20.37;58.19;101141.69;5043503;28;20070;-77
2022/06/05 10:03:01;;;;;;;7.82;7.00;;;;;;;20.32;58.57;101139.34;5048448;28;20059;-77
2022/06/05 10:05:29;;;;;;;11.43;7.70;;;;;;;20.30;58.54;101135.09;5045093;28;20033;-77
2022/06/05 10:08:16;;;;;;;8.45;7.63;;;;;;;20.30;58.13;101132.47;5044402;28;20598;-76
2022/06/05 10:10:43;;;;;;;7.68;6.88;;;;;;;20.28;59.13;101131.72;5041576;28;20037;-77
2022/06/05 10:13:29;;;;;;;9.07;7.78;;;;;;;20.25;59.29;101135.38;5044001;28;20029;-76
2022/06/05 10:16:05;;;;;;;9.05;8.15;;;;;;;20.24;59.28;101120.47;5044588;28;20200;-76
2022/06/05 10:18:39;;;;;;;10.90;8.13;;;;;;;20.25;59.40;101127.44;5046957;28;20036;-77
2022/06/05 10:21:11;;;;;;;9.15;8.00;;;;;;;20.27;59.35;101119.44;5046170;28;20043;-77
2022/06/05 10:24:07;;;;;;;8.73;7.82;;;;;;;20.32;58.82;101120.84;5045519;28;20196;-77
2022/06/05 10:26:37;;;;;;;11.23;7.20;;;;;;;20.34;59.79;101115.44;5043375;28;20514;-77
2022/06/05 10:29:10;;;;;;;9.50;7.80;;;;;;;20.36;59.94;101113.56;5044688;28;20032;-77
2022/06/05 10:31:40;;;;;;;9.45;7.47;;;;;;;20.36;60.29;101110.91;5043113;28;20036;-77
2022/06/05 10:34:19;;;;;;;9.30;8.25;;;;;;;20.34;59.56;101112.81;5042664;28;20376;-77
2022/06/05 10:36:58;;;;;;;11.35;8.38;;;;;;;20.32;60.48;101117.38;5044669;28;20033;-77
2022/06/05 10:39:27;;;;;;;9.13;8.23;;;;;;;20.31;61.60;101118.31;5047343;28;20331;-77
2022/06/05 10:41:53;;;;;;;9.48;8.57;;;;;;;20.26;62.16;101123.03;5048088;28;20078;-76
2022/06/05 10:44:32;;;;;;;10.40;8.93;;;;;;;20.22;62.25;101124.16;5054248;28;20032;-77
2022/06/05 10:47:08;;;;;;;10.15;8.73;;;;;;;20.19;61.77;101114.63;5051548;28;20036;-77
2022/06/05 10:49:49;;;;;;;11.75;9.23;;;;;;;20.17;62.95;101125.28;5055687;28;20033;-77
2022/06/05 10:52:26;;;;;;;9.73;8.40;;;;;;;20.16;61.56;101114.81;5051512;28;20052;-76
2022/06/05 10:55:05;;;;;;;11.40;9.20;;;;;;;20.12;62.43;101116.81;5055075;28;20127;-77
2022/06/05 10:57:36;;;;;;;11.18;9.48;;;;;;;20.10;62.71;101112.53;5045899;28;20029;-77
2022/06/05 11:00:02;;;;;;;11.68;9.05;;;;;;;20.06;62.92;101113.69;5051599;28;20420;-76
2022/06/05 11:03:05;;;;;;;10.20;9.18;;;;;;;20.02;62.52;101110.38;5052061;28;20032;-76
2022/06/05 11:05:42;;;;;;;11.07;9.02;;;;;;;20.00;63.12;101109.63;5048609;28;20418;-76
2022/06/05 11:08:15;;;;;;;10.40;9.30;;;;;;;19.98;63.97;101111.53;5051795;28;20032;-76
2022/06/05 11:14:14;;;;;;;9.90;8.90;;;;;;;19.97;62.67;101107.19;5048954;28;20124;-76
2022/06/05 11:16:59;;;;;;;10.57;8.70;;;;;;;19.94;63.55;101102.09;5050386;28;20033;-77
2022/06/05 11:19:41;;;;;;;10.68;8.40;;;;;;;19.91;63.24;101097.84;5047753;28;20090;-77
2022/06/05 11:22:13;;;;;;;9.07;8.18;;;;;;;19.86;64.61;101098.09;5039688;28;20093;-78
2022/06/05 11:24:55;;;;;;;11.32;8.38;;;;;;;19.81;64.00;101092.22;5055102;28;20407;-77
2022/06/05 11:27:31;;;;;;;10.45;8.90;;;;;;;19.76;67.10;101088.19;5054745;28;20111;-77
2022/06/05 11:30:15;;;;;;;9.50;8.57;;;;;;;19.71;67.94;101096.38;5057783;28;20020;-78
2022/06/05 11:33:05;;;;;;;10.20;9.07;;;;;;;19.62;67.30;101087.22;5053155;28;20040;-77
2022/06/05 11:35:40;;;;;;;12.38;9.75;;;;;;;19.55;70.20;101089.38;5053352;28;20276;-78
2022/06/05 11:38:20;;;;;;;13.52;10.15;;;;;;;19.46;69.87;101087.31;5056669;28;20028;-77
2022/06/05 11:40:53;;;;;;;10.85;9.10;;;;;;;19.38;70.86;101089.53;5052725;28;20454;-78
2022/06/05 11:43:36;;;;;;;10.50;9.40;;;;;;;19.30;68.76;101087.34;5054152;28;20024;-78
2022/06/05 11:46:45;;;;;;;13.13;10.48;;;;;;;19.21;69.16;101078.19;5050670;28;20119;-78
2022/06/05 11:49:20;;;;;;;13.18;10.98;;;;;;;19.12;73.55;101084.03;5035524;28;20500;-78
2022/06/05 11:52:16;;;;;;;13.98;10.60;;;;;;;19.05;73.82;101077.38;5051666;28;20059;-77
2022/06/05 11:54:51;;;;;;;13.60;11.40;;;;;;;19.01;76.12;101075.84;5054025;28;20414;-77
2022/06/05 11:57:22;;;;;;;13.13;11.05;;;;;;;18.95;75.92;101087.59;5050862;28;20356;-77
2022/06/05 11:59:56;;;;;;;13.45;11.90;;;;;;;18.86;76.33;101091.59;5054523;28;20429;-77